Millers Tavrn, Virginia
Current Conditions -  °F | °C
As of 5:55 PM on Thursday 23 Oct 2014 (Local Time) from KXSA Reporting Station
Overcast Overcast  
Wind Chill: 64°   Ceiling: 4900
Heat Index: 64°   Visibility: 10mi
Dew Point: 40°   Wind: 12mph
Humidity: 43%   Direction: 300°WNW
Pressure: 29.89"   Gusts: 16mph
Location:  37.8283°N, 76.9455°W
Report Text: KXSA 232155Z AUTO 30010G14KT 280V340 10SM OVC049 18/05 A2989 RMK AO2 T01750046
Loading
Personal Weather Stations






























Interactive Weather Map New forecast layout! Learn more

10-Day Weather Forecast

Advertisements
Track Severe Weather on mobile